createdAt,value
2018-10-16T00:00:15.743Z,67.27
2018-10-16T00:02:45.210Z,67.39
2018-10-16T00:05:14.086Z,67.65
2018-10-16T00:07:42.927Z,67.93
2018-10-16T00:10:11.668Z,68.43
2018-10-16T00:12:40.511Z,68.24
2018-10-16T00:15:10.556Z,68.62
2018-10-16T00:17:39.526Z,68.70
2018-10-16T00:20:08.399Z,68.70
2018-10-16T00:22:37.202Z,68.77
2018-10-16T00:25:07.550Z,68.95
2018-10-16T00:27:36.264Z,69.14
2018-10-16T00:30:05.205Z,69.07
2018-10-16T00:32:33.981Z,69.63
2018-10-16T00:35:02.642Z,69.81
2018-10-16T00:37:31.474Z,69.70
2018-10-16T00:40:00.449Z,70.25
2018-10-16T00:42:29.310Z,70.34
2018-10-16T00:44:58.327Z,69.77
2018-10-16T00:47:27.108Z,69.53
2018-10-16T00:49:55.875Z,69.55
2018-10-16T00:52:24.678Z,69.81
2018-10-16T00:54:53.583Z,69.63
2018-10-16T00:57:22.356Z,69.97
2018-10-16T00:59:51.150Z,69.79
2018-10-16T01:02:20.036Z,69.79
2018-10-16T01:04:48.797Z,69.60
2018-10-16T01:07:17.551Z,69.60
2018-10-16T01:09:46.312Z,69.70
2018-10-16T01:12:15.247Z,70.06
2018-10-16T01:14:44.357Z,70.21
2018-10-16T01:17:13.230Z,70.21
2018-10-16T01:19:41.996Z,70.69
2018-10-16T01:22:10.902Z,71.23
2018-10-16T01:24:39.779Z,71.17
2018-10-16T01:27:08.681Z,71.27
2018-10-16T01:29:37.516Z,71.44
2018-10-16T01:32:06.448Z,71.38
2018-10-16T01:34:35.188Z,71.57
2018-10-16T01:37:03.953Z,71.58
2018-10-16T01:39:32.711Z,71.74
2018-10-16T01:42:01.552Z,71.96
2018-10-16T01:44:30.291Z,71.92
2018-10-16T01:46:59.103Z,71.76
2018-10-16T01:49:27.770Z,71.52
2018-10-16T01:51:56.547Z,71.36
2018-10-16T01:54:25.511Z,71.17
2018-10-16T01:56:54.367Z,71.06
2018-10-16T01:59:23.231Z,71.32
2018-10-16T02:01:53.006Z,71.03
2018-10-16T02:04:21.840Z,70.67
2018-10-16T02:06:50.905Z,70.64
2018-10-16T02:09:19.682Z,70.52
2018-10-16T02:11:48.538Z,70.69
2018-10-16T02:14:17.267Z,71.14
2018-10-16T02:16:46.066Z,71.17
2018-10-16T02:19:15.039Z,71.33
2018-10-16T02:21:43.895Z,71.51
2018-10-16T02:24:12.611Z,71.21
2018-10-16T02:26:41.509Z,71.38
2018-10-16T02:29:10.606Z,71.40
2018-10-16T02:31:39.310Z,71.56
2018-10-16T02:34:08.171Z,71.57
2018-10-16T02:36:36.998Z,71.56
2018-10-16T02:39:08.282Z,71.55
2018-10-16T02:41:37.339Z,71.83
2018-10-16T02:44:06.810Z,71.78
2018-10-16T02:46:35.534Z,71.57
2018-10-16T02:49:04.971Z,70.80
2018-10-16T02:51:33.822Z,70.48
2018-10-16T02:54:02.574Z,70.34
2018-10-16T02:56:31.306Z,70.44
2018-10-16T02:59:00.062Z,70.50
2018-10-16T03:01:29.021Z,70.12
2018-10-16T03:03:57.806Z,70.16
2018-10-16T03:06:26.531Z,70.39
2018-10-16T03:08:55.227Z,70.61
2018-10-16T03:11:24.031Z,70.70
2018-10-16T03:13:53.090Z,71.00
2018-10-16T03:16:21.803Z,71.45
2018-10-16T03:18:50.571Z,71.83
2018-10-16T03:21:19.338Z,72.02
2018-10-16T03:23:48.094Z,72.26
2018-10-16T03:26:16.878Z,72.09
2018-10-16T03:28:45.630Z,72.16
2018-10-16T03:31:14.702Z,72.12
2018-10-16T03:33:43.397Z,72.31
2018-10-16T03:36:12.251Z,72.20
2018-10-16T03:38:41.002Z,72.46
2018-10-16T03:41:10.030Z,71.72
2018-10-16T03:43:39.786Z,72.36
2018-10-16T03:46:08.935Z,72.61
2018-10-16T03:48:37.758Z,72.39
2018-10-16T03:51:06.503Z,72.57
2018-10-16T03:53:35.251Z,72.83
2018-10-16T03:56:04.024Z,72.41
2018-10-16T03:58:32.729Z,72.22
2018-10-16T04:01:01.607Z,71.54
2018-10-16T04:03:30.314Z,71.01
2018-10-16T04:05:59.186Z,70.97
2018-10-16T04:08:28.054Z,70.84
2018-10-16T04:10:56.918Z,71.10
2018-10-16T04:13:25.666Z,70.87
2018-10-16T04:15:54.539Z,71.13
2018-10-16T04:18:23.241Z,71.15
2018-10-16T04:20:52.163Z,71.58
2018-10-16T04:23:20.807Z,71.67
2018-10-16T04:25:49.555Z,71.75
2018-10-16T04:28:18.218Z,72.10
2018-10-16T04:30:47.011Z,71.71
2018-10-16T04:33:15.710Z,71.90
2018-10-16T04:35:44.477Z,72.48
2018-10-16T04:38:13.164Z,72.32
2018-10-16T04:40:42.147Z,72.27
2018-10-16T04:43:10.886Z,72.10
2018-10-16T04:45:39.871Z,72.14
2018-10-16T04:48:08.590Z,72.33
2018-10-16T04:50:37.507Z,72.61
2018-10-16T04:53:07.246Z,73.10
2018-10-16T04:55:36.050Z,73.12
2018-10-16T04:58:04.812Z,72.54
2018-10-16T05:00:33.534Z,72.85
2018-10-16T05:03:02.474Z,72.94
2018-10-16T05:05:31.715Z,72.92
2018-10-16T05:08:00.994Z,72.87
2018-10-16T05:10:29.916Z,73.37
2018-10-16T05:12:58.768Z,73.05
2018-10-16T05:15:30.976Z,72.99
2018-10-16T05:20:39.614Z,72.88
2018-10-16T05:23:08.648Z,73.52
2018-10-16T05:25:37.649Z,72.88
2018-10-16T05:28:06.355Z,73.12
2018-10-16T05:30:35.250Z,73.29
2018-10-16T05:33:04.043Z,72.98
2018-10-16T05:35:32.767Z,72.95
2018-10-16T05:38:01.631Z,73.05
2018-10-16T05:40:30.535Z,73.57
2018-10-16T05:42:59.423Z,74.48
2018-10-16T05:45:29.920Z,75.37
2018-10-16T05:47:58.930Z,75.14
2018-10-16T05:50:27.736Z,74.57
2018-10-16T05:52:56.995Z,73.96
2018-10-16T05:55:25.993Z,73.46
2018-10-16T05:57:54.810Z,73.58
2018-10-16T06:00:35.770Z,73.80
2018-10-16T06:03:04.897Z,73.79
2018-10-16T06:05:33.775Z,73.31
2018-10-16T06:08:02.582Z,73.67
2018-10-16T06:10:31.321Z,73.64
2018-10-16T06:13:00.010Z,73.07
2018-10-16T06:15:29.026Z,73.34
2018-10-16T06:17:57.799Z,73.32
2018-10-16T06:20:26.728Z,72.66
2018-10-16T06:22:55.515Z,72.78
2018-10-16T06:25:24.387Z,73.07
2018-10-16T06:27:53.293Z,73.22
2018-10-16T06:30:22.329Z,72.86
2018-10-16T06:32:51.002Z,73.08
2018-10-16T06:35:19.765Z,73.89
2018-10-16T06:37:48.562Z,73.31
2018-10-16T06:40:17.305Z,73.04
2018-10-16T06:42:46.074Z,73.71
2018-10-16T06:45:14.971Z,74.04
2018-10-16T06:47:43.963Z,74.71
2018-10-16T06:50:12.804Z,73.83
2018-10-16T06:52:41.578Z,73.68
2018-10-16T06:55:10.485Z,73.75
2018-10-16T06:57:39.173Z,73.44
2018-10-16T07:00:08.651Z,73.18
2018-10-16T07:02:37.495Z,72.78
2018-10-16T07:05:07.807Z,72.47
2018-10-16T07:07:36.671Z,72.19
2018-10-16T07:10:06.768Z,71.76
2018-10-16T07:12:35.606Z,71.58
2018-10-16T07:15:04.516Z,71.27
2018-10-16T07:17:33.375Z,70.87
2018-10-16T07:20:02.160Z,70.76
2018-10-16T07:22:30.984Z,70.63
2018-10-16T07:24:59.731Z,70.30
2018-10-16T07:27:28.593Z,69.88
2018-10-16T07:29:57.452Z,70.07
2018-10-16T07:32:26.504Z,70.39
2018-10-16T07:34:55.312Z,70.31
2018-10-16T07:37:24.047Z,69.78
2018-10-16T07:39:52.816Z,69.32
2018-10-16T07:42:21.732Z,69.28
2018-10-16T07:44:50.646Z,68.71
2018-10-16T07:47:20.081Z,68.85
2018-10-16T07:49:48.969Z,68.94
2018-10-16T07:52:17.806Z,69.28
2018-10-16T07:54:46.579Z,69.56
2018-10-16T07:57:15.521Z,69.06
2018-10-16T07:59:44.218Z,68.70
2018-10-16T08:02:13.064Z,68.50
2018-10-16T08:04:41.890Z,68.24
2018-10-16T08:07:10.716Z,68.16
2018-10-16T08:09:39.455Z,68.04
2018-10-16T08:12:10.223Z,67.96
2018-10-16T08:14:39.871Z,67.63
2018-10-16T08:17:08.970Z,67.41
2018-10-16T08:19:37.742Z,67.40
2018-10-16T08:22:06.515Z,67.47
2018-10-16T08:24:35.234Z,67.01
2018-10-16T08:27:04.018Z,67.01
2018-10-16T08:29:32.718Z,66.47
2018-10-16T08:32:01.554Z,66.33
2018-10-16T08:34:30.337Z,66.10
2018-10-16T08:36:59.316Z,65.65
2018-10-16T08:39:33.957Z,65.77
2018-10-16T08:45:14.348Z,65.21
2018-10-16T08:47:54.244Z,64.33
2018-10-16T08:50:35.386Z,63.81
2018-10-16T08:53:04.252Z,63.42
2018-10-16T08:55:33.482Z,63.01
2018-10-16T08:58:02.957Z,62.67
2018-10-16T09:00:31.771Z,62.26
2018-10-16T09:03:00.518Z,62.39
2018-10-16T09:05:29.957Z,62.31
2018-10-16T09:07:58.726Z,62.34
2018-10-16T09:10:28.138Z,61.73
2018-10-16T09:12:56.930Z,61.71
2018-10-16T09:15:25.944Z,60.82
2018-10-16T09:17:54.793Z,60.68
2018-10-16T09:20:23.710Z,60.57
2018-10-16T09:22:52.553Z,61.00
2018-10-16T09:25:21.338Z,59.97
2018-10-16T09:27:50.110Z,59.15
2018-10-16T09:30:18.948Z,59.02
2018-10-16T09:32:47.775Z,59.48
2018-10-16T09:35:16.560Z,59.13
2018-10-16T09:37:45.384Z,59.06
2018-10-16T09:40:14.223Z,58.29
2018-10-16T09:42:43.059Z,57.80
2018-10-16T09:45:12.138Z,57.83
2018-10-16T09:47:40.871Z,57.69
2018-10-16T09:50:10.617Z,56.65
2018-10-16T09:52:39.488Z,56.79
2018-10-16T09:55:09.964Z,56.58
2018-10-16T09:57:38.870Z,56.43
2018-10-16T10:00:14.134Z,55.76
2018-10-16T10:02:43.227Z,55.26
2018-10-16T10:05:12.181Z,55.14
2018-10-16T10:07:41.053Z,55.16
2018-10-16T10:10:10.091Z,55.54
2018-10-16T10:12:39.144Z,54.69
2018-10-16T10:15:08.147Z,55.53
2018-10-16T10:17:37.315Z,54.48
2018-10-16T10:20:07.008Z,54.22
2018-10-16T10:22:35.833Z,54.00
2018-10-16T10:25:05.093Z,53.47
2018-10-16T10:27:33.811Z,53.35
2018-10-16T10:30:03.035Z,53.58
2018-10-16T10:32:32.198Z,53.38
2018-10-16T10:35:01.122Z,53.26
2018-10-16T10:37:29.887Z,53.50
2018-10-16T10:39:58.693Z,53.61
2018-10-16T10:42:27.494Z,53.71
2018-10-16T10:44:56.484Z,52.51
2018-10-16T10:47:25.390Z,52.47
2018-10-16T10:49:54.214Z,51.63
2018-10-16T10:52:22.949Z,50.54
2018-10-16T10:54:51.739Z,50.97
2018-10-16T10:57:20.521Z,50.39
2018-10-16T10:59:49.280Z,50.00
2018-10-16T11:02:18.129Z,50.70
2018-10-16T11:04:46.994Z,49.49
2018-10-16T11:07:15.782Z,49.46
2018-10-16T11:09:44.642Z,49.04
2018-10-16T11:12:13.303Z,49.59
2018-10-16T11:14:42.199Z,48.49
2018-10-16T11:17:10.890Z,48.42
2018-10-16T11:19:39.670Z,47.71
2018-10-16T11:22:08.454Z,47.69
2018-10-16T11:24:37.174Z,47.68
2018-10-16T11:27:06.002Z,47.00
2018-10-16T11:29:34.738Z,47.32
2018-10-16T11:32:03.562Z,47.34
2018-10-16T11:34:32.423Z,46.46
2018-10-16T11:37:01.324Z,45.90
2018-10-16T11:39:33.119Z,45.96
2018-10-16T11:42:02.076Z,44.17
2018-10-16T11:44:32.826Z,43.64
2018-10-16T11:47:17.350Z,43.20
2018-10-16T11:49:47.130Z,42.46
2018-10-16T11:52:21.919Z,41.59
2018-10-16T11:54:50.691Z,41.62
2018-10-16T11:57:19.572Z,39.75
2018-10-16T11:59:48.426Z,38.68
2018-10-16T12:02:17.349Z,39.35
2018-10-16T12:04:46.209Z,38.73
2018-10-16T12:07:15.309Z,37.37
2018-10-16T12:09:44.296Z,35.52
2018-10-16T12:12:13.058Z,33.72
2018-10-16T12:14:41.958Z,35.23
2018-10-16T12:17:23.027Z,34.80
2018-10-16T12:19:58.369Z,33.57
2018-10-16T12:22:27.062Z,32.75
2018-10-16T12:24:55.923Z,31.41
2018-10-16T12:27:25.234Z,31.01
2018-10-16T12:29:54.019Z,33.47
2018-10-16T12:32:22.788Z,31.61
2018-10-16T12:34:51.422Z,31.79
2018-10-16T12:37:20.202Z,31.66
2018-10-16T12:39:49.081Z,30.79
2018-10-16T12:42:17.835Z,30.26
2018-10-16T12:44:46.792Z,29.09
2018-10-16T12:47:15.725Z,27.81
2018-10-16T12:49:44.454Z,28.12
2018-10-16T12:52:13.296Z,28.17
2018-10-16T12:54:41.994Z,28.46
2018-10-16T12:57:10.735Z,28.29
2018-10-16T12:59:39.560Z,27.43
2018-10-16T13:02:08.324Z,29.00
2018-10-16T13:04:37.168Z,28.98
2018-10-16T13:07:13.219Z,27.60
2018-10-16T13:09:42.009Z,25.96
2018-10-16T13:12:11.031Z,25.82
2018-10-16T13:14:39.887Z,26.03
2018-10-16T13:17:08.720Z,25.21
2018-10-16T13:19:37.573Z,25.63
2018-10-16T13:22:06.461Z,26.08
2018-10-16T13:24:35.356Z,30.24
2018-10-16T13:27:04.138Z,30.53
2018-10-16T13:29:33.254Z,29.66
2018-10-16T13:32:01.972Z,29.22
2018-10-16T13:34:30.766Z,28.22
2018-10-16T13:36:59.626Z,27.53
2018-10-16T13:39:28.473Z,27.80
2018-10-16T13:41:57.215Z,27.71
2018-10-16T13:44:26.183Z,27.75
2018-10-16T13:46:55.000Z,29.96
2018-10-16T13:49:23.760Z,30.04
2018-10-16T13:51:52.590Z,30.00
2018-10-16T13:54:21.385Z,30.75
2018-10-16T13:56:50.325Z,32.15
2018-10-16T13:59:19.170Z,34.06
2018-10-16T14:01:47.887Z,34.64
2018-10-16T14:04:16.727Z,34.11
2018-10-16T14:06:45.467Z,34.16
2018-10-16T14:09:14.205Z,34.03
2018-10-16T14:11:43.255Z,34.63
2018-10-16T14:14:12.069Z,34.90
2018-10-16T14:16:40.861Z,35.52
2018-10-16T14:19:09.571Z,36.51
2018-10-16T14:21:38.471Z,36.23
2018-10-16T14:24:07.258Z,36.48
2018-10-16T14:26:36.332Z,36.13
2018-10-16T14:29:05.774Z,36.50
2018-10-16T14:31:34.469Z,36.79
2018-10-16T14:34:03.281Z,36.58
2018-10-16T14:36:32.136Z,36.94
2018-10-16T14:39:00.950Z,37.25
2018-10-16T14:41:30.002Z,37.44
2018-10-16T14:43:58.852Z,37.68
2018-10-16T14:46:27.565Z,38.11
2018-10-16T14:48:56.386Z,37.85
2018-10-16T14:51:25.135Z,38.41
2018-10-16T14:53:53.982Z,38.68
2018-10-16T14:56:22.783Z,38.83
2018-10-16T14:58:51.610Z,38.47
2018-10-16T15:01:20.299Z,38.68
2018-10-16T15:03:49.260Z,38.98
2018-10-16T15:06:17.911Z,39.02
2018-10-16T15:08:46.707Z,39.15
2018-10-16T15:11:15.593Z,39.94
2018-10-16T15:13:44.432Z,39.39
2018-10-16T15:16:13.250Z,39.58
2018-10-16T15:18:41.958Z,39.83
2018-10-16T15:21:10.720Z,40.13
2018-10-16T15:23:39.695Z,39.79
2018-10-16T15:26:08.648Z,40.23
2018-10-16T15:28:37.479Z,40.72
2018-10-16T15:31:06.202Z,40.30
2018-10-16T15:33:35.131Z,40.56
2018-10-16T15:36:03.907Z,40.88
2018-10-16T15:38:32.741Z,40.78
2018-10-16T15:41:01.788Z,41.29
2018-10-16T15:43:30.694Z,41.26
2018-10-16T15:45:59.506Z,41.70
2018-10-16T15:48:28.310Z,41.89
2018-10-16T15:50:57.140Z,41.99
2018-10-16T15:53:25.884Z,42.30
2018-10-16T15:55:54.614Z,42.50
2018-10-16T15:58:23.503Z,42.67
2018-10-16T16:00:52.184Z,42.95
2018-10-16T16:03:21.106Z,43.36
2018-10-16T16:05:49.814Z,43.93
2018-10-16T16:08:18.572Z,43.81
2018-10-16T16:10:47.379Z,44.10
2018-10-16T16:13:16.132Z,43.90
2018-10-16T16:15:44.880Z,44.13
2018-10-16T16:18:13.797Z,44.24
2018-10-16T16:20:42.695Z,44.45
2018-10-16T16:23:11.554Z,44.19
2018-10-16T16:25:40.489Z,44.55
2018-10-16T16:28:09.468Z,44.55
2018-10-16T16:30:38.175Z,45.21
2018-10-16T16:33:07.180Z,45.18
2018-10-16T16:35:35.966Z,45.08
2018-10-16T16:38:05.048Z,45.38
2018-10-16T16:40:33.690Z,45.78
2018-10-16T16:43:02.535Z,45.92
2018-10-16T16:45:31.457Z,46.68
2018-10-16T16:48:00.235Z,46.49
2018-10-16T16:50:29.039Z,47.14
2018-10-16T16:52:57.914Z,47.12
2018-10-16T16:55:26.787Z,47.37
2018-10-16T16:57:55.593Z,47.87
2018-10-16T17:00:24.355Z,48.15
2018-10-16T17:02:53.191Z,48.33
2018-10-16T17:05:22.050Z,48.62
2018-10-16T17:07:50.987Z,49.05
2018-10-16T17:10:19.919Z,49.32
2018-10-16T17:12:48.783Z,49.45
2018-10-16T17:15:17.694Z,49.92
2018-10-16T17:17:47.315Z,50.11
2018-10-16T17:20:16.053Z,50.56
2018-10-16T17:22:44.924Z,50.61
2018-10-16T17:25:14.857Z,50.85
2018-10-16T17:27:44.327Z,51.51
2018-10-16T17:30:15.147Z,51.16
2018-10-16T17:32:44.476Z,51.63
2018-10-16T17:35:13.775Z,51.86
2018-10-16T17:37:43.189Z,52.57
2018-10-16T17:40:13.776Z,53.14
2018-10-16T17:42:42.748Z,53.54
2018-10-16T17:45:13.064Z,53.25
2018-10-16T17:47:42.321Z,53.55
2018-10-16T17:50:13.035Z,54.29
2018-10-16T17:52:42.130Z,54.72
2018-10-16T17:55:11.951Z,54.85
2018-10-16T17:57:41.226Z,55.62
2018-10-16T18:00:12.861Z,55.63
2018-10-16T18:02:42.215Z,55.69
2018-10-16T18:05:11.410Z,55.76
2018-10-16T18:07:40.422Z,56.08
2018-10-16T18:10:09.546Z,56.20
2018-10-16T18:12:38.511Z,56.35
2018-10-16T18:15:09.375Z,56.74
2018-10-16T18:17:38.454Z,56.52
2018-10-16T18:20:09.059Z,56.84
2018-10-16T18:22:37.815Z,56.60
2018-10-16T18:25:07.693Z,57.01
2018-10-16T18:27:36.470Z,56.89
2018-10-16T18:30:05.590Z,57.08
2018-10-16T18:32:34.351Z,57.76
2018-10-16T18:35:03.153Z,57.92
2018-10-16T18:37:31.922Z,57.59
2018-10-16T18:40:00.846Z,57.61
2018-10-16T18:42:29.554Z,58.24
2018-10-16T18:44:58.383Z,58.79
2018-10-16T18:47:27.336Z,58.95
2018-10-16T18:49:56.047Z,58.88
2018-10-16T18:52:24.921Z,59.45
2018-10-16T18:54:53.832Z,59.54
2018-10-16T18:57:22.642Z,59.43
2018-10-16T18:59:51.472Z,59.66
2018-10-16T19:02:20.270Z,59.96
2018-10-16T19:04:49.053Z,59.84
2018-10-16T19:07:18.034Z,59.89
2018-10-16T19:09:46.895Z,60.18
2018-10-16T19:12:15.695Z,60.63
2018-10-16T19:14:44.463Z,60.57
2018-10-16T19:17:13.529Z,60.71
2018-10-16T19:19:42.352Z,61.06
2018-10-16T19:22:11.201Z,60.80
2018-10-16T19:24:40.022Z,61.14
2018-10-16T19:27:08.934Z,60.83
2018-10-16T19:29:37.822Z,61.19
2018-10-16T19:32:06.830Z,60.96
2018-10-16T19:34:35.583Z,61.32
2018-10-16T19:37:04.419Z,61.75
2018-10-16T19:39:33.277Z,61.94
2018-10-16T19:42:02.078Z,61.93
2018-10-16T19:44:31.062Z,61.87
2018-10-16T19:46:59.987Z,61.84
2018-10-16T19:49:28.722Z,62.18
2018-10-16T19:51:57.555Z,62.46
2018-10-16T19:54:26.625Z,62.62
2018-10-16T19:56:55.497Z,62.71
2018-10-16T19:59:24.336Z,62.57
2018-10-16T20:01:53.171Z,62.55
2018-10-16T20:04:22.033Z,62.75
2018-10-16T20:06:50.907Z,63.17
2018-10-16T20:09:19.652Z,63.08
2018-10-16T20:11:48.471Z,63.77
2018-10-16T20:14:17.422Z,63.41
2018-10-16T20:16:46.051Z,63.38
2018-10-16T20:19:14.920Z,64.00
2018-10-16T20:21:43.848Z,63.58
2018-10-16T20:24:12.773Z,63.40
2018-10-16T20:26:41.709Z,64.21
2018-10-16T20:29:10.698Z,64.53
2018-10-16T20:31:39.498Z,64.25
2018-10-16T20:34:08.319Z,64.58
2018-10-16T20:36:37.127Z,64.92
2018-10-16T20:39:10.920Z,64.67
2018-10-16T20:41:40.094Z,64.81
2018-10-16T20:44:08.968Z,65.02
2018-10-16T20:46:38.078Z,65.54
2018-10-16T20:49:07.504Z,65.61
2018-10-16T20:51:37.081Z,65.85
2018-10-16T20:54:06.050Z,66.30
2018-10-16T20:56:34.859Z,66.33
2018-10-16T20:59:03.676Z,67.04
2018-10-16T21:01:32.455Z,66.67
2018-10-16T21:04:01.206Z,66.69
2018-10-16T21:06:30.242Z,66.69
2018-10-16T21:08:58.911Z,66.70
2018-10-16T21:11:27.689Z,67.31
2018-10-16T21:13:56.528Z,68.01
2018-10-16T21:16:25.391Z,68.10
2018-10-16T21:18:54.231Z,68.24
2018-10-16T21:21:23.183Z,68.45
2018-10-16T21:23:51.935Z,68.34
2018-10-16T21:26:20.749Z,68.68
2018-10-16T21:28:49.561Z,68.48
2018-10-16T21:31:18.431Z,68.77
2018-10-16T21:33:47.143Z,68.56
2018-10-16T21:36:15.906Z,68.06
2018-10-16T21:38:44.779Z,68.57
2018-10-16T21:41:13.636Z,68.89
2018-10-16T21:43:42.347Z,68.11
2018-10-16T21:46:11.223Z,67.95
2018-10-16T21:48:39.935Z,68.17
2018-10-16T21:51:08.830Z,67.92
2018-10-16T21:53:37.662Z,68.36
2018-10-16T21:56:06.466Z,68.43
2018-10-16T21:58:35.182Z,68.32
2018-10-16T22:01:09.641Z,68.58
2018-10-16T22:03:38.703Z,68.61
2018-10-16T22:06:07.645Z,68.61
2018-10-16T22:08:36.653Z,68.72
2018-10-16T22:11:05.999Z,68.51
2018-10-16T22:13:34.736Z,67.76
2018-10-16T22:16:03.480Z,67.98
2018-10-16T22:18:32.259Z,68.11
2018-10-16T22:21:01.024Z,68.27
2018-10-16T22:23:29.863Z,68.15
2018-10-16T22:25:58.706Z,68.41
2018-10-16T22:28:27.441Z,67.91
2018-10-16T22:30:56.212Z,67.99
2018-10-16T22:33:24.987Z,68.15
2018-10-16T22:35:53.922Z,68.49
2018-10-16T22:38:22.687Z,68.20
2018-10-16T22:40:51.551Z,68.70
2018-10-16T22:43:20.511Z,69.00
2018-10-16T22:45:49.324Z,69.10
2018-10-16T22:48:18.018Z,68.75
2018-10-16T22:50:46.975Z,69.07
2018-10-16T22:53:15.792Z,69.51
2018-10-16T22:55:44.605Z,69.54
2018-10-16T22:58:13.251Z,69.51
2018-10-16T23:00:42.019Z,69.90
2018-10-16T23:03:10.831Z,70.03
2018-10-16T23:05:39.786Z,70.07
2018-10-16T23:08:08.553Z,70.33
2018-10-16T23:10:37.564Z,70.31
2018-10-16T23:13:06.912Z,70.76
2018-10-16T23:15:35.882Z,70.73
2018-10-16T23:18:05.241Z,70.08
2018-10-16T23:20:34.622Z,70.41
2018-10-16T23:23:03.424Z,70.58
2018-10-16T23:25:32.205Z,70.41
2018-10-16T23:28:00.966Z,70.36
2018-10-16T23:30:29.832Z,70.45
2018-10-16T23:32:58.651Z,70.75
2018-10-16T23:35:27.351Z,71.01
2018-10-16T23:37:56.137Z,70.93
2018-10-16T23:40:24.942Z,71.48
2018-10-16T23:42:53.806Z,71.11
2018-10-16T23:45:22.581Z,71.68
2018-10-16T23:47:51.421Z,71.46
2018-10-16T23:50:20.255Z,71.53
2018-10-16T23:52:49.062Z,71.78
2018-10-16T23:55:18.007Z,72.30
2018-10-16T23:57:46.753Z,72.42
